Time;durP1;ratioP1;P1;durP2;ratioP2;P2;SDS_P1;SDS_P2;PMS_P1;PMS_P2;Temp;Humidity;BMP_temperature;BMP_pressure;BME280_temperature;BME280_humidity;BME280_pressure;Samples;Min_cycle;Max_cycle;Signal;HPM_P1;HPM_P2
2023/01/15 00:00:12;;;;;;;0.38;0.25;;;;;;;;;;6090433;23;20101;-55
2023/01/15 00:02:46;;;;;;;0.93;0.28;;;;;;;;;;6090172;23;20033;-55
2023/01/15 00:05:13;;;;;;;0.30;0.30;;;;;;;;;;6064689;23;20027;-51
2023/01/15 00:07:41;;;;;;;0.22;0.22;;;;;;;;;;6090534;23;20105;-53
2023/01/15 00:10:15;;;;;;;0.20;0.20;;;;;;;;;;6089519;23;20028;-56
2023/01/15 00:12:42;;;;;;;0.30;0.30;;;;;;;;;;6089963;23;20027;-56
2023/01/15 00:15:16;;;;;;;2.38;0.35;;;;;;;;;;6090948;23;20018;-54
2023/01/15 00:17:49;;;;;;;0.40;0.40;;;;;;;;;;6089765;23;20435;-68
2023/01/15 00:20:23;;;;;;;2.05;0.35;;;;;;;;;;6090321;23;20415;-50
2023/01/15 00:22:50;;;;;;;1.75;0.40;;;;;;;;;;6091103;23;20105;-48
2023/01/15 00:28:13;;;;;;;0.75;0.43;;;;;;;;;;6089767;23;20412;-54
2023/01/15 00:30:43;;;;;;;0.82;0.30;;;;;;;;;;6090057;23;20026;-52
2023/01/15 00:33:17;;;;;;;2.45;0.43;;;;;;;;;;6090053;23;20050;-50
2023/01/15 00:35:44;;;;;;;3.15;0.50;;;;;;;;;;6091050;23;20102;-69
2023/01/15 00:38:11;;;;;;;2.95;0.68;;;;;;;;;;6090995;23;20030;-60
2023/01/15 00:40:51;;;;;;;5.13;1.42;;;;;;;;;;6089118;23;20101;-55
2023/01/15 00:43:18;;;;;;;5.68;1.23;;;;;;;;;;6089999;23;20109;-54
2023/01/15 00:45:52;;;;;;;5.47;1.00;;;;;;;;;;6090355;23;20030;-55
2023/01/15 00:48:19;;;;;;;9.13;1.70;;;;;;;;;;6088572;23;20042;-54
2023/01/15 00:50:46;;;;;;;11.40;1.55;;;;;;;;;;6090203;23;20133;-54
2023/01/15 00:53:20;;;;;;;10.18;1.60;;;;;;;;;;6089388;23;20105;-54
2023/01/15 00:55:47;;;;;;;12.15;1.85;;;;;;;;;;6090021;23;20105;-52
2023/01/15 00:58:21;;;;;;;12.85;2.10;;;;;;;;;;6090475;23;20028;-59
2023/01/15 01:00:55;;;;;;;17.80;2.05;;;;;;;;;;6088899;23;20053;-59
2023/01/15 01:03:29;;;;;;;23.35;2.67;;;;;;;;;;6089897;23;20061;-59
2023/01/15 01:06:03;;;;;;;20.10;2.17;;;;;;;;;;6090958;23;20053;-59
2023/01/15 01:08:37;;;;;;;20.30;2.80;;;;;;;;;;6065535;23;20022;-59
2023/01/15 01:11:08;;;;;;;26.27;2.92;;;;;;;;;;6088089;23;20173;-58
2023/01/15 01:13:36;;;;;;;14.77;2.03;;;;;;;;;;6090608;23;20028;-73
2023/01/15 01:16:36;;;;;;;22.65;2.83;;;;;;;;;;6087909;23;20106;-56
2023/01/15 01:19:20;;;;;;;20.60;2.92;;;;;;;;;;6089964;23;20029;-54
2023/01/15 01:21:48;;;;;;;23.33;2.78;;;;;;;;;;6088837;23;20058;-55
2023/01/15 01:24:23;;;;;;;13.48;2.25;;;;;;;;;;6089634;23;20105;-55
2023/01/15 01:26:51;;;;;;;29.88;2.92;;;;;;;;;;6090087;23;20030;-53
2023/01/15 01:29:25;;;;;;;22.67;3.15;;;;;;;;;;6090141;23;20486;-54
2023/01/15 01:31:52;;;;;;;35.55;3.75;;;;;;;;;;6089856;23;20520;-59
2023/01/15 01:34:19;;;;;;;16.88;2.63;;;;;;;;;;6090267;23;20023;-55
2023/01/15 01:36:53;;;;;;;27.38;3.35;;;;;;;;;;6088913;23;20028;-53
2023/01/15 01:39:20;;;;;;;27.85;3.55;;;;;;;;;;6087261;23;20105;-54
2023/01/15 01:41:48;;;;;;;36.35;4.07;;;;;;;;;;6064938;23;20032;-54
2023/01/15 01:44:34;;;;;;;36.95;4.00;;;;;;;;;;6089859;23;20101;-56
2023/01/15 01:47:10;;;;;;;29.88;3.03;;;;;;;;;;6086954;23;20033;-52
2023/01/15 01:49:39;;;;;;;23.23;3.75;;;;;;;;;;6090086;23;20105;-51
2023/01/15 01:52:15;;;;;;;35.92;4.07;;;;;;;;;;6089090;23;20061;-60
2023/01/15 01:54:45;;;;;;;38.03;5.03;;;;;;;;;;6090124;23;20134;-73
2023/01/15 01:57:12;;;;;;;43.90;4.18;;;;;;;;;;6090028;23;20018;-72
2023/01/15 01:59:47;;;;;;;41.17;4.55;;;;;;;;;;6089562;23;20093;-72
2023/01/15 02:02:14;;;;;;;41.42;4.82;;;;;;;;;;6089424;23;20018;-72
2023/01/15 02:04:42;;;;;;;35.72;4.05;;;;;;;;;;6089273;23;20363;-73
2023/01/15 02:07:16;;;;;;;30.35;3.97;;;;;;;;;;6086535;23;20502;-74
2023/01/15 02:09:43;;;;;;;;;;;;;;;;;;6089531;23;20686;-54
2023/01/15 02:12:37;;;;;;;50.67;4.30;;;;;;;;;;6090104;23;19924;-46
2023/01/15 02:15:07;;;;;;;31.30;4.45;;;;;;;;;;6088534;23;20571;-47
2023/01/15 02:17:54;;;;;;;47.38;5.82;;;;;;;;;;6088309;23;20540;-45
2023/01/15 02:20:35;;;;;;;51.25;4.60;;;;;;;;;;6088539;23;20101;-46
2023/01/15 02:23:18;;;;;;;46.95;4.38;;;;;;;;;;6088322;23;20025;-46
2023/01/15 02:26:16;;;;;;;44.85;5.28;;;;;;;;;;6088341;23;20113;-45
2023/01/15 02:28:45;;;;;;;42.60;4.30;;;;;;;;;;6089793;23;20026;-52
2023/01/15 02:31:21;;;;;;;33.63;5.25;;;;;;;;;;6088006;23;20098;-46
2023/01/15 02:33:51;;;;;;;47.10;5.22;;;;;;;;;;6087382;23;20109;-45
2023/01/15 02:36:26;;;;;;;43.22;4.40;;;;;;;;;;6087770;23;20057;-47
2023/01/15 02:38:55;;;;;;;50.85;4.68;;;;;;;;;;6088877;23;20508;-45
2023/01/15 02:41:34;;;;;;;31.83;4.55;;;;;;;;;;6088446;23;20026;-48
2023/01/15 02:44:03;;;;;;;46.38;4.93;;;;;;;;;;6088118;23;20101;-46
2023/01/15 02:46:38;;;;;;;38.88;4.68;;;;;;;;;;6087592;23;20023;-71
2023/01/15 02:49:07;;;;;;;36.78;4.80;;;;;;;;;;6086174;23;20338;-54
2023/01/15 02:51:50;;;;;;;38.58;4.68;;;;;;;;;;6089196;23;20026;-53
2023/01/15 02:54:25;;;;;;;32.13;4.22;;;;;;;;;;6088774;23;20101;-54
2023/01/15 02:56:54;;;;;;;34.83;4.05;;;;;;;;;;6089866;23;20018;-53
2023/01/15 02:59:34;;;;;;;42.58;4.85;;;;;;;;;;6063839;23;20086;-55
2023/01/15 03:02:04;;;;;;;29.55;3.90;;;;;;;;;;6087720;23;20113;-55
2023/01/15 03:04:42;;;;;;;34.50;4.05;;;;;;;;;;6089202;23;20529;-74
2023/01/15 03:07:13;;;;;;;38.40;3.88;;;;;;;;;;6088790;23;20050;-54
2023/01/15 03:09:47;;;;;;;25.42;3.90;;;;;;;;;;6088754;23;20025;-54
2023/01/15 03:13:01;;;;;;;37.90;3.67;;;;;;;;;;6089170;23;20097;-52
2023/01/15 03:18:30;;;;;;;42.55;4.13;;;;;;;;;;6091483;23;19928;-56
2023/01/15 03:20:59;;;;;;;46.75;4.65;;;;;;;;;;6091950;23;20078;-52
2023/01/15 03:23:36;;;;;;;36.17;4.82;;;;;;;;;;6089262;23;20028;-55
2023/01/15 03:26:03;;;;;;;55.33;4.32;;;;;;;;;;6090768;23;20026;-59
2023/01/15 03:28:38;;;;;;;32.38;4.07;;;;;;;;;;6090758;23;20058;-60
2023/01/15 03:31:06;;;;;;;37.33;4.53;;;;;;;;;;6090769;23;20029;-60
2023/01/15 03:33:40;;;;;;;39.10;4.82;;;;;;;;;;6089363;23;20556;-60
2023/01/15 03:36:07;;;;;;;;;;;;;;;;;;6090926;23;20110;-60
2023/01/15 03:38:37;;;;;;;37.95;3.78;;;;;;;;;;6090393;23;20259;-60
2023/01/15 03:41:32;;;;;;;33.50;3.75;;;;;;;;;;6091015;23;20027;-50
2023/01/15 03:44:11;;;;;;;30.90;4.72;;;;;;;;;;6090611;23;20481;-70
2023/01/15 03:46:57;;;;;;;36.17;4.65;;;;;;;;;;6091137;23;20101;-70
2023/01/15 03:49:28;;;;;;;43.28;4.75;;;;;;;;;;6090318;23;20057;-71
2023/01/15 03:52:01;;;;;;;36.38;4.47;;;;;;;;;;6088316;23;20050;-70
2023/01/15 03:54:33;;;;;;;51.40;5.10;;;;;;;;;;6090189;23;20057;-70
2023/01/15 03:57:27;;;;;;;37.00;4.28;;;;;;;;;;6090557;23;20118;-70
2023/01/15 03:59:56;;;;;;;36.67;4.85;;;;;;;;;;6046309;23;20022;-60
2023/01/15 04:02:30;;;;;;;26.48;4.68;;;;;;;;;;6087913;23;20475;-52
2023/01/15 04:04:58;;;;;;;51.42;5.80;;;;;;;;;;6091804;23;20101;-48
2023/01/15 04:07:32;;;;;;;35.90;4.82;;;;;;;;;;6087995;23;20026;-51
2023/01/15 04:10:09;;;;;;;40.78;5.05;;;;;;;;;;6090496;23;20068;-50
2023/01/15 04:12:43;;;;;;;44.78;5.03;;;;;;;;;;6089040;23;20129;-53
2023/01/15 04:15:11;;;;;;;33.15;4.88;;;;;;;;;;6091753;23;20046;-47
2023/01/15 04:17:38;;;;;;;36.55;4.85;;;;;;;;;;6086648;23;20022;-59
2023/01/15 04:20:12;;;;;;;32.53;4.28;;;;;;;;;;6091048;23;20097;-73
2023/01/15 04:22:39;;;;;;;41.45;5.45;;;;;;;;;;6088169;23;20113;-73
2023/01/15 04:25:13;;;;;;;39.60;4.60;;;;;;;;;;6090371;23;20456;-73
2023/01/15 04:27:40;;;;;;;36.03;4.40;;;;;;;;;;6090951;23;20033;-73
2023/01/15 04:30:07;;;;;;;29.23;3.75;;;;;;;;;;6090079;23;20129;-72
2023/01/15 04:32:41;;;;;;;32.20;4.57;;;;;;;;;;6089561;23;20378;-73
2023/01/15 04:35:08;;;;;;;40.92;4.25;;;;;;;;;;6089766;23;20125;-45
2023/01/15 04:37:42;;;;;;;36.03;3.72;;;;;;;;;;6090298;23;20196;-59
2023/01/15 04:44:05;;;;;;;24.58;3.83;;;;;;;;;;6089432;23;20121;-58
2023/01/15 04:45:56;;;;;;;31.38;4.07;;;;;;;;;;6089949;23;20037;-59
2023/01/15 04:48:23;;;;;;;31.95;3.78;;;;;;;;;;6090826;23;20068;-59
2023/01/15 04:50:57;;;;;;;24.55;3.30;;;;;;;;;;6090109;23;20109;-58
2023/01/15 04:53:25;;;;;;;37.00;4.00;;;;;;;;;;6089383;23;20117;-61
2023/01/15 04:56:00;;;;;;;35.00;4.00;;;;;;;;;;6090283;23;20025;-60
2023/01/15 04:58:28;;;;;;;25.27;3.47;;;;;;;;;;6088849;23;20369;-60
2023/01/15 05:00:55;;;;;;;29.75;3.45;;;;;;;;;;6089733;23;20060;-60
2023/01/15 05:03:29;;;;;;;23.17;4.03;;;;;;;;;;6090177;23;20058;-60
2023/01/15 05:06:03;;;;;;;24.30;3.42;;;;;;;;;;6089723;23;20062;-60
2023/01/15 05:08:37;;;;;;;30.58;4.28;;;;;;;;;;6089438;23;20041;-60
2023/01/15 05:11:05;;;;;;;27.35;4.22;;;;;;;;;;6090089;23;20476;-60
2023/01/15 05:13:39;;;;;;;30.58;3.95;;;;;;;;;;6089076;23;20106;-75
2023/01/15 05:16:10;;;;;;;33.67;3.97;;;;;;;;;;6087753;23;20029;-51
2023/01/15 05:18:38;;;;;;;48.55;5.15;;;;;;;;;;6089309;23;20086;-51
2023/01/15 05:21:17;;;;;;;38.55;4.15;;;;;;;;;;6089759;23;20026;-49
2023/01/15 05:23:44;;;;;;;38.63;4.05;;;;;;;;;;6089297;23;20049;-50
2023/01/15 05:26:18;;;;;;;33.92;4.13;;;;;;;;;;6090377;23;20045;-51
2023/01/15 05:28:45;;;;;;;;;;;;;;;;;;6064766;23;20026;-52
2023/01/15 05:31:14;;;;;;;20.90;3.33;;;;;;;;;;6088834;23;20482;-47
2023/01/15 05:33:48;;;;;;;31.13;3.92;;;;;;;;;;6090645;23;20026;-60
2023/01/15 05:36:16;;;;;;;40.15;6.18;;;;;;;;;;6089028;23;20053;-61
2023/01/15 05:38:51;;;;;;;42.97;4.25;;;;;;;;;;6089375;23;20416;-61
2023/01/15 05:44:12;;;;;;;30.17;4.88;;;;;;;;;;6088776;23;20022;-61
2023/01/15 05:46:39;;;;;;;;;;;;;;;;;;6087130;23;20061;-61
2023/01/15 05:49:08;;;;;;;45.08;5.15;;;;;;;;;;6088954;23;19949;-47
2023/01/15 05:51:42;;;;;;;40.70;5.43;;;;;;;;;;6088874;23;20427;-55
2023/01/15 05:54:17;;;;;;;28.40;4.50;;;;;;;;;;6089443;23;20412;-53
2023/01/15 05:56:51;;;;;;;41.00;5.88;;;;;;;;;;6089005;23;20464;-54
2023/01/15 05:59:19;;;;;;;38.50;4.63;;;;;;;;;;6089385;23;20049;-55
2023/01/15 06:01:46;;;;;;;38.90;5.97;;;;;;;;;;6088197;23;20029;-49
2023/01/15 06:04:20;;;;;;;37.30;5.00;;;;;;;;;;6088598;23;20125;-57
2023/01/15 06:06:47;;;;;;;;;;;;;;;;;;6089676;23;20030;-51
2023/01/15 06:09:21;;;;;;;46.47;5.47;;;;;;;;;;6088216;23;19923;-50
2023/01/15 06:11:49;;;;;;;39.40;4.95;;;;;;;;;;6088765;23;20527;-58
2023/01/15 06:14:23;;;;;;;26.60;4.35;;;;;;;;;;6089779;23;20030;-59
2023/01/15 06:17:03;;;;;;;31.95;4.47;;;;;;;;;;6087829;23;20030;-61
2023/01/15 06:19:37;;;;;;;38.13;5.10;;;;;;;;;;6087935;23;20033;-58
2023/01/15 06:22:04;;;;;;;34.58;4.32;;;;;;;;;;6089055;23;20023;-58
2023/01/15 06:24:31;;;;;;;30.83;4.05;;;;;;;;;;6090604;23;20105;-59
2023/01/15 06:27:05;;;;;;;33.42;6.03;;;;;;;;;;6087117;23;20491;-61
2023/01/15 06:29:32;;;;;;;35.45;5.32;;;;;;;;;;6090792;23;20097;-60
2023/01/15 06:32:06;;;;;;;40.50;4.78;;;;;;;;;;6089084;23;20022;-60
2023/01/15 06:34:33;;;;;;;42.28;4.70;;;;;;;;;;6088211;23;20105;-60
2023/01/15 06:37:00;;;;;;;38.60;4.57;;;;;;;;;;6089742;23;20022;-60
2023/01/15 06:39:34;;;;;;;45.00;6.78;;;;;;;;;;6088625;23;20117;-60
2023/01/15 06:47:39;;;;;;;48.42;5.13;;;;;;;;;;6088153;23;20027;-75
2023/01/15 06:50:14;;;;;;;35.70;4.88;;;;;;;;;;6087682;23;20490;-77
2023/01/15 06:52:41;;;;;;;39.63;5.45;;;;;;;;;;6088249;23;20030;-74
2023/01/15 06:55:17;;;;;;;32.72;5.10;;;;;;;;;;6089516;23;20048;-77
2023/01/15 06:57:44;;;;;;;45.35;5.72;;;;;;;;;;6088522;23;20101;-75
2023/01/15 07:00:11;;;;;;;;;;;;;;;;;;6089611;23;20305;-77
2023/01/15 07:02:45;;;;;;;23.40;3.95;;;;;;;;;;6087984;23;19924;-70
2023/01/15 07:05:12;;;;;;;46.42;5.78;;;;;;;;;;6088797;23;20590;-75
2023/01/15 07:07:46;;;;;;;36.10;4.90;;;;;;;;;;6086680;23;20061;-73
2023/01/15 07:10:13;;;;;;;39.13;5.32;;;;;;;;;;6087316;23;20065;-75
2023/01/15 07:12:40;;;;;;;42.03;5.93;;;;;;;;;;6089353;23;20026;-74
2023/01/15 07:15:14;;;;;;;39.45;5.75;;;;;;;;;;6088684;23;20027;-74
2023/01/15 07:17:41;;;;;;;32.95;5.35;;;;;;;;;;6089123;23;20134;-74
2023/01/15 07:20:17;;;;;;;37.53;4.97;;;;;;;;;;6088989;23;20026;-69
2023/01/15 07:22:44;;;;;;;27.30;4.93;;;;;;;;;;6086751;23;20023;-58
2023/01/15 07:25:11;;;;;;;33.53;4.03;;;;;;;;;;6089264;23;20018;-61
2023/01/15 07:27:48;;;;;;;39.88;5.65;;;;;;;;;;6088964;23;20049;-61
2023/01/15 07:30:15;;;;;;;37.85;5.07;;;;;;;;;;6088303;23;20273;-61
2023/01/15 07:32:49;;;;;;;36.72;4.32;;;;;;;;;;6087347;23;20468;-61
2023/01/15 07:35:16;;;;;;;39.20;5.22;;;;;;;;;;6089105;23;20029;-60
2023/01/15 07:37:43;;;;;;;29.10;5.07;;;;;;;;;;6087157;23;20354;-61
2023/01/15 07:40:17;;;;;;;32.83;4.72;;;;;;;;;;6089109;23;20289;-46
2023/01/15 07:51:17;;;;;;;34.10;4.68;;;;;;;;;;6088685;23;20019;-59
2023/01/15 07:53:44;;;;;;;29.73;5.20;;;;;;;;;;6089114;23;20058;-58
2023/01/15 07:56:18;;;;;;;31.00;5.22;;;;;;;;;;6088211;23;20025;-59
2023/01/15 07:58:48;;;;;;;41.63;5.63;;;;;;;;;;6088613;23;20158;-58
2023/01/15 08:01:16;;;;;;;33.17;5.88;;;;;;;;;;6091373;23;20022;-76
2023/01/15 08:03:50;;;;;;;37.28;4.20;;;;;;;;;;6089551;23;20620;-76
2023/01/15 08:06:17;;;;;;;34.15;4.78;;;;;;;;;;6089664;23;20026;-78
2023/01/15 08:08:51;;;;;;;36.65;5.25;;;;;;;;;;6090305;23;20030;-77
2023/01/15 08:17:10;;;;;;;35.78;5.38;;;;;;;;;;6090441;23;20397;-55
2023/01/15 08:19:50;;;;;;;42.30;6.70;;;;;;;;;;6088806;23;20094;-60
2023/01/15 08:22:17;;;;;;;44.28;5.60;;;;;;;;;;6090609;23;20097;-60
2023/01/15 08:24:51;;;;;;;36.33;4.68;;;;;;;;;;6092036;23;20037;-60
2023/01/15 08:27:25;;;;;;;36.40;5.53;;;;;;;;;;6090039;23;20033;-60
2023/01/15 08:29:59;;;;;;;40.38;5.53;;;;;;;;;;6091403;23;20464;-60
2023/01/15 08:32:33;;;;;;;36.85;5.05;;;;;;;;;;6089598;23;20029;-60
2023/01/15 08:35:08;;;;;;;31.88;5.10;;;;;;;;;;6091266;23;20416;-61
2023/01/15 08:37:35;;;;;;;30.10;5.78;;;;;;;;;;6090537;23;20114;-71
2023/01/15 08:40:03;;;;;;;38.10;6.10;;;;;;;;;;6091474;23;20037;-71
2023/01/15 08:42:37;;;;;;;37.20;4.97;;;;;;;;;;6089624;23;20026;-71
2023/01/15 08:45:05;;;;;;;41.00;6.00;;;;;;;;;;6090808;23;20040;-71
2023/01/15 08:47:32;;;;;;;;;;;;;;;;;;6089482;23;20397;-71
2023/01/15 08:50:07;;;;;;;47.55;5.88;;;;;;;;;;6090014;23;20406;-72
2023/01/15 08:52:34;;;;;;;39.15;5.70;;;;;;;;;;6089236;23;20357;-60
2023/01/15 08:55:08;;;;;;;40.70;6.05;;;;;;;;;;6089013;23;20026;-47
2023/01/15 08:57:37;;;;;;;31.95;5.30;;;;;;;;;;6089140;23;20032;-46
2023/01/15 09:00:05;;;;;;;38.95;4.85;;;;;;;;;;6090863;23;20026;-47
2023/01/15 09:02:39;;;;;;;38.05;5.78;;;;;;;;;;6089674;23;20101;-46
2023/01/15 09:05:06;;;;;;;37.78;5.78;;;;;;;;;;6089899;23;20133;-47
2023/01/15 09:07:34;;;;;;;39.42;5.93;;;;;;;;;;6088919;23;20022;-47
2023/01/15 09:10:08;;;;;;;34.15;5.22;;;;;;;;;;6090768;23;20117;-47
2023/01/15 09:12:35;;;;;;;30.02;5.18;;;;;;;;;;6088711;23;20122;-61
2023/01/15 09:15:09;;;;;;;37.10;5.32;;;;;;;;;;6090070;23;20022;-55
2023/01/15 09:17:49;;;;;;;28.98;4.85;;;;;;;;;;6088273;23;20693;-55
2023/01/15 09:20:23;;;;;;;39.40;5.53;;;;;;;;;;6089404;23;20033;-58
2023/01/15 09:22:50;;;;;;;;;;;;;;;;;;6089114;23;20146;-56
2023/01/15 09:25:18;;;;;;;39.22;4.57;;;;;;;;;;6088015;23;19917;-56
2023/01/15 09:27:55;;;;;;;43.08;6.22;;;;;;;;;;6088903;23;20690;-57
2023/01/15 09:30:22;;;;;;;34.22;5.18;;;;;;;;;;6088709;23;20433;-74
2023/01/15 09:32:56;;;;;;;38.15;4.82;;;;;;;;;;6088612;23;20025;-74
2023/01/15 09:35:23;;;;;;;37.38;5.22;;;;;;;;;;6088283;23;20026;-73
2023/01/15 09:37:57;;;;;;;50.15;5.95;;;;;;;;;;6088241;23;20109;-73
2023/01/15 09:41:01;;;;;;;42.40;5.68;;;;;;;;;;6089031;23;20105;-72
2023/01/15 09:43:35;;;;;;;33.92;5.30;;;;;;;;;;6001351;23;20071;-74
2023/01/15 09:46:19;;;;;;;37.20;6.07;;;;;;;;;;6084606;23;20067;-73
2023/01/15 09:49:03;;;;;;;42.78;5.55;;;;;;;;;;6090384;23;20029;-61
2023/01/15 09:51:30;;;;;;;38.45;5.93;;;;;;;;;;6088318;23;20041;-53
2023/01/15 09:54:13;;;;;;;42.75;5.72;;;;;;;;;;6087701;23;20487;-52
2023/01/15 09:56:43;;;;;;;44.80;6.57;;;;;;;;;;6089359;23;20034;-55
2023/01/15 09:59:25;;;;;;;41.58;5.57;;;;;;;;;;6089426;23;20076;-54
2023/01/15 10:02:04;;;;;;;38.42;5.13;;;;;;;;;;6088573;23;20023;-55
2023/01/15 10:04:42;;;;;;;35.53;5.63;;;;;;;;;;6090090;23;20029;-54
2023/01/15 10:07:09;;;;;;;27.08;5.88;;;;;;;;;;6090539;23;20050;-47
2023/01/15 10:09:38;;;;;;;36.53;5.18;;;;;;;;;;6088718;23;20032;-69
2023/01/15 10:12:34;;;;;;;43.60;5.22;;;;;;;;;;6089326;23;20022;-70
2023/01/15 10:15:18;;;;;;;39.30;5.38;;;;;;;;;;6088669;23;20022;-70
2023/01/15 10:18:07;;;;;;;36.40;4.57;;;;;;;;;;6085501;23;20053;-69
2023/01/15 10:20:41;;;;;;;32.60;5.00;;;;;;;;;;6088763;23;20025;-69
2023/01/15 10:23:36;;;;;;;40.20;5.13;;;;;;;;;;6086725;23;20018;-70
2023/01/15 10:26:16;;;;;;;43.95;6.03;;;;;;;;;;6087996;23;20061;-51
2023/01/15 10:29:02;;;;;;;41.33;6.25;;;;;;;;;;6088473;23;20027;-70
2023/01/15 10:31:44;;;;;;;57.72;6.78;;;;;;;;;;6089634;23;20365;-70
2023/01/15 10:34:34;;;;;;;41.10;5.55;;;;;;;;;;6089763;23;20026;-69
2023/01/15 10:37:17;;;;;;;32.05;5.32;;;;;;;;;;6089364;23;20031;-71
2023/01/15 10:40:04;;;;;;;48.20;6.53;;;;;;;;;;6082945;23;20363;-70
2023/01/15 10:42:39;;;;;;;44.05;7.55;;;;;;;;;;6088974;23;20108;-49
2023/01/15 10:45:18;;;;;;;48.90;6.30;;;;;;;;;;6089150;23;20018;-61
2023/01/15 10:47:49;;;;;;;41.17;6.18;;;;;;;;;;6088551;23;20073;-60
2023/01/15 10:50:24;;;;;;;53.35;7.25;;;;;;;;;;6088200;23;20033;-60
2023/01/15 10:53:21;;;;;;;53.10;5.90;;;;;;;;;;6086985;23;20479;-60
2023/01/15 10:55:59;;;;;;;41.10;5.63;;;;;;;;;;6058341;23;20022;-60
2023/01/15 10:58:37;;;;;;;49.92;6.90;;;;;;;;;;6087830;23;20031;-60
2023/01/15 11:01:20;;;;;;;53.78;6.32;;;;;;;;;;6088019;23;20086;-70
2023/01/15 11:03:47;;;;;;;42.75;6.15;;;;;;;;;;6088819;23;20087;-58
2023/01/15 11:06:22;;;;;;;48.17;6.00;;;;;;;;;;6090369;23;20018;-59
2023/01/15 11:08:59;;;;;;;53.78;8.05;;;;;;;;;;6087043;23;20065;-58
2023/01/15 11:20:43;;;;;;;46.88;7.00;;;;;;;;;;6089344;23;20117;-73
2023/01/15 11:23:20;;;;;;;36.92;5.93;;;;;;;;;;6088527;23;20062;-45
2023/01/15 11:25:54;;;;;;;51.58;7.38;;;;;;;;;;6089878;23;20057;-46
2023/01/15 11:28:34;;;;;;;43.55;6.10;;;;;;;;;;6088708;23;20474;-45
2023/01/15 11:31:01;;;;;;;50.22;6.30;;;;;;;;;;6088423;23;20030;-48
2023/01/15 11:33:36;;;;;;;39.90;5.70;;;;;;;;;;6089159;23;20058;-46
2023/01/15 11:36:07;;;;;;;52.53;5.97;;;;;;;;;;6089153;23;20610;-47
2023/01/15 11:38:45;;;;;;;36.70;6.07;;;;;;;;;;6089333;23;20110;-52
2023/01/15 11:41:19;;;;;;;39.78;6.50;;;;;;;;;;6090988;23;20161;-75
2023/01/15 11:52:25;;;;;;;43.47;6.18;;;;;;;;;;6091543;23;20106;-74
2023/01/15 11:54:53;;;;;;;40.72;5.13;;;;;;;;;;6089787;23;20109;-73
2023/01/15 11:57:31;;;;;;;43.75;7.45;;;;;;;;;;6090823;23;20018;-61
2023/01/15 11:59:59;;;;;;;36.40;5.50;;;;;;;;;;6090431;23;20056;-52
2023/01/15 12:02:47;;;;;;;43.83;6.50;;;;;;;;;;6089660;23;20575;-49
2023/01/15 12:05:16;;;;;;;38.20;6.10;;;;;;;;;;6090467;23;20030;-53
2023/01/15 12:07:52;;;;;;;36.35;5.38;;;;;;;;;;6067727;23;20106;-52
2023/01/15 12:13:22;;;;;;;47.33;6.78;;;;;;;;;;6089528;23;20061;-50
2023/01/15 12:16:08;;;;;;;44.38;5.78;;;;;;;;;;6090224;23;20521;-47
2023/01/15 12:19:05;;;;;;;31.42;4.32;;;;;;;;;;6089987;23;20022;-45
2023/01/15 12:21:39;;;;;;;33.70;4.90;;;;;;;;;;6089917;23;20053;-47
2023/01/15 12:24:33;;;;;;;43.38;5.25;;;;;;;;;;6088192;23;20033;-46
2023/01/15 12:27:10;;;;;;;31.55;5.47;;;;;;;;;;6089766;23;20101;-46
2023/01/15 12:29:43;;;;;;;37.70;5.53;;;;;;;;;;6089429;23;20030;-46
2023/01/15 12:32:20;;;;;;;37.60;4.68;;;;;;;;;;6090599;23;20058;-45
2023/01/15 12:35:13;;;;;;;30.88;4.45;;;;;;;;;;6090700;23;20097;-49
2023/01/15 12:37:47;;;;;;;;;;;;;;;;;;6090647;23;20032;-56
2023/01/15 12:40:14;;;;;;;34.85;6.45;;;;;;;;;;6088705;23;19951;-53
2023/01/15 12:45:40;;;;;;;41.83;6.10;;;;;;;;;;6090171;23;20026;-54
2023/01/15 12:48:37;;;;;;;46.55;12.10;;;;;;;;;;6088380;23;20377;-55
2023/01/15 12:51:05;;;;;;;32.55;8.27;;;;;;;;;;6078022;23;20064;-46
2023/01/15 12:53:39;;;;;;;43.92;6.93;;;;;;;;;;6089879;23;20094;-60
2023/01/15 12:56:09;;;;;;;33.45;8.52;;;;;;;;;;6090787;23;20460;-46
2023/01/15 12:58:46;;;;;;;44.45;17.25;;;;;;;;;;6089510;23;20331;-46
2023/01/15 13:01:20;;;;;;;35.22;8.00;;;;;;;;;;6089719;23;20133;-51
2023/01/15 13:04:16;;;;;;;36.88;7.82;;;;;;;;;;6090069;23;20030;-45
2023/01/15 13:06:46;;;;;;;33.70;5.82;;;;;;;;;;6088297;23;20086;-49
2023/01/15 13:09:39;;;;;;;38.20;5.47;;;;;;;;;;6089531;23;20138;-49
2023/01/15 13:12:25;;;;;;;35.88;6.28;;;;;;;;;;6090393;23;20098;-49
2023/01/15 13:14:58;;;;;;;29.75;5.82;;;;;;;;;;6088373;23;20129;-57
2023/01/15 13:17:58;;;;;;;30.27;4.95;;;;;;;;;;6089328;23;20029;-54
2023/01/15 13:20:31;;;;;;;32.30;5.50;;;;;;;;;;6089531;23;20101;-54
2023/01/15 13:23:08;;;;;;;37.35;6.60;;;;;;;;;;6090577;23;20490;-53
2023/01/15 13:26:03;;;;;;;32.17;5.00;;;;;;;;;;6089520;23;20074;-52
2023/01/15 13:28:38;;;;;;;29.40;4.68;;;;;;;;;;6088568;23;20069;-60
2023/01/15 13:31:24;;;;;;;32.67;4.32;;;;;;;;;;6089770;23;20101;-46
2023/01/15 13:33:53;;;;;;;33.17;4.60;;;;;;;;;;6088969;23;20408;-46
2023/01/15 13:36:35;;;;;;;28.42;4.22;;;;;;;;;;6089087;23;20061;-45
2023/01/15 13:39:04;;;;;;;26.27;4.85;;;;;;;;;;6089190;23;20019;-49
2023/01/15 13:44:28;;;;;;;36.20;4.80;;;;;;;;;;6089089;23;20405;-46
2023/01/15 13:47:06;;;;;;;32.72;5.68;;;;;;;;;;6088704;23;20033;-58
2023/01/15 13:49:50;;;;;;;38.30;5.50;;;;;;;;;;6089732;23;20513;-52
2023/01/15 13:52:35;;;;;;;30.02;4.38;;;;;;;;;;6089589;23;20105;-52
2023/01/15 13:55:02;;;;;;;;;;;;;;;;;;6090506;23;20069;-54
2023/01/15 13:57:39;;;;;;;29.52;4.50;;;;;;;;;;6088683;23;19945;-54
2023/01/15 14:00:07;;;;;;;39.25;5.30;;;;;;;;;;6087930;23;20129;-53
2023/01/15 14:02:51;;;;;;;33.78;5.25;;;;;;;;;;6064858;23;20106;-52
2023/01/15 14:05:26;;;;;;;37.47;5.95;;;;;;;;;;6089148;23;20026;-58
2023/01/15 14:08:01;;;;;;;48.90;6.00;;;;;;;;;;6090284;23;20106;-76
2023/01/15 14:10:32;;;;;;;32.95;4.60;;;;;;;;;;6088209;23;20333;-76
2023/01/15 14:13:10;;;;;;;43.58;5.68;;;;;;;;;;6088592;23;20077;-75
2023/01/15 14:15:47;;;;;;;31.00;4.47;;;;;;;;;;6089582;23;20405;-77
2023/01/15 14:18:55;;;;;;;34.35;7.63;;;;;;;;;;6087998;23;20417;-76
2023/01/15 14:21:27;;;;;;;40.47;6.13;;;;;;;;;;6090625;23;20030;-77
2023/01/15 14:24:18;;;;;;;28.27;4.78;;;;;;;;;;6089394;23;20082;-60
2023/01/15 14:26:46;;;;;;;39.88;5.68;;;;;;;;;;6089010;23;20065;-69
2023/01/15 14:29:38;;;;;;;34.75;4.90;;;;;;;;;;6090133;23;20401;-70
2023/01/15 14:32:17;;;;;;;34.55;5.32;;;;;;;;;;6090456;23;20037;-70
2023/01/15 14:34:55;;;;;;;33.50;4.90;;;;;;;;;;6088957;23;20097;-72
2023/01/15 14:37:29;;;;;;;;;;;;;;;;;;6090717;23;20360;-70
2023/01/15 14:40:04;;;;;;;30.25;4.60;;;;;;;;;;6089477;23;19995;-71
2023/01/15 14:45:36;;;;;;;42.30;5.53;;;;;;;;;;6089557;23;20023;-61
2023/01/15 14:48:28;;;;;;;32.95;4.00;;;;;;;;;;6089794;23;20101;-60
2023/01/15 14:51:08;;;;;;;33.10;4.63;;;;;;;;;;6089495;23;20030;-60
2023/01/15 14:53:49;;;;;;;21.67;4.95;;;;;;;;;;6088436;23;20114;-60
2023/01/15 14:56:35;;;;;;;39.38;4.70;;;;;;;;;;6091140;23;20070;-60
2023/01/15 14:59:27;;;;;;;30.23;4.63;;;;;;;;;;6089790;23;20105;-60
2023/01/15 15:02:00;;;;;;;26.98;4.03;;;;;;;;;;6090215;23;20030;-76
2023/01/15 15:04:51;;;;;;;25.45;4.18;;;;;;;;;;6087588;23;20027;-70
2023/01/15 15:07:27;;;;;;;23.08;4.45;;;;;;;;;;6090590;23;20042;-70
2023/01/15 15:10:05;;;;;;;29.35;4.15;;;;;;;;;;6072681;23;20368;-70
2023/01/15 15:12:38;;;;;;;22.75;3.92;;;;;;;;;;6076568;23;20102;-71
2023/01/15 15:15:24;;;;;;;32.65;4.88;;;;;;;;;;6091316;23;20055;-71
2023/01/15 15:18:01;;;;;;;25.02;4.80;;;;;;;;;;6091673;23;20054;-70
2023/01/15 15:20:35;;;;;;;22.17;4.30;;;;;;;;;;6091717;23;20101;-60
2023/01/15 15:23:12;;;;;;;33.58;4.80;;;;;;;;;;6092847;23;20029;-60
2023/01/15 15:25:40;;;;;;;25.15;6.38;;;;;;;;;;6088924;23;20368;-60
2023/01/15 15:28:14;;;;;;;25.02;4.55;;;;;;;;;;6091559;23;20022;-60
2023/01/15 15:30:43;;;;;;;26.45;3.97;;;;;;;;;;6091184;23;20026;-60
2023/01/15 15:33:19;;;;;;;25.60;3.75;;;;;;;;;;6074951;23;20767;-60
2023/01/15 15:35:48;;;;;;;22.80;3.80;;;;;;;;;;6089910;23;20022;-60
2023/01/15 15:38:23;;;;;;;32.05;4.75;;;;;;;;;;6091648;23;20061;-46
2023/01/15 15:40:57;;;;;;;24.25;3.67;;;;;;;;;;6076650;23;20077;-60
2023/01/15 15:49:19;;;;;;;28.05;3.63;;;;;;;;;;6148001;23;20095;-60
2023/01/15 15:51:47;;;;;;;26.50;3.28;;;;;;;;;;6150429;23;20025;-60
2023/01/15 15:54:29;;;;;;;23.27;3.40;;;;;;;;;;6149460;23;20053;-60
2023/01/15 15:56:59;;;;;;;21.35;3.58;;;;;;;;;;6123512;23;20407;-69
2023/01/15 15:59:35;;;;;;;21.17;3.15;;;;;;;;;;6149579;23;20105;-57
2023/01/15 16:02:13;;;;;;;27.27;3.33;;;;;;;;;;6150781;23;20056;-55
2023/01/15 16:05:07;;;;;;;16.80;2.95;;;;;;;;;;6148286;23;20029;-55
2023/01/15 16:07:36;;;;;;;17.15;3.03;;;;;;;;;;6129952;23;20029;-55
2023/01/15 16:10:29;;;;;;;12.30;2.00;;;;;;;;;;6148430;23;20028;-56
2023/01/15 16:12:58;;;;;;;12.68;2.38;;;;;;;;;;6145112;23;20077;-54
2023/01/15 16:15:39;;;;;;;14.70;4.35;;;;;;;;;;6145509;23;20100;-54
2023/01/15 16:18:21;;;;;;;11.57;3.38;;;;;;;;;;6144838;23;20096;-58
2023/01/15 16:21:02;;;;;;;7.53;2.90;;;;;;;;;;6145009;23;20609;-58
2023/01/15 16:23:30;;;;;;;7.35;1.50;;;;;;;;;;6146236;23;20104;-59